Details for Ryanair at EIDW




Go Back


Latest METAR
Local Time

EIDW 221030Z VRB03KT 9999 -RA FEW012 BKN060 10/07 Q1016 NOSIG
22/09/2018, 11:47:52

Description
Results
Ryanair Logo
Number of Pilots based at EIDW
1 Pilots Based here
Number of Ryanair Flights Departed from EIDW
46 Flights Departed
Number of Ryanair Flights Arrived at EIDW
49 Flights Arrived
Number of Ryanair Schedules Departing from EIDW
277 Schedules
Number of Ryanair Schedules Arriving at EIDW
269 Schedules
Number of Ryanair Schedules Departing from EIDW availible today
106 Schedules Today
Number of Ryanair Schedules Arriving at EIDW availible today
105 Schedules Today
Average Landing Rate at EIDW
-209 fpm
Ryanair Average Landing Rate at EIDW
-195 fpm
Total Fuel Purchased at EIDW by Ryanair
143,328.46 kgs / 315,981.92 lbs

Pilots Based at EIDW


Pilot ID
Pilot Name
Pilot Rank
No. of Flights
No. of Flying Hours
Danny Barnes
205
499.11
Content